Archival Weather

Norman Y Mineta San Jose Intl

San Jose, California (KSJC)

Report from: Sunday, February 11, 2024 1:53 AM PST
Current time: Monday, June 24, 2024 4:28 AM PDT

Current weather – Weather history – Daily summaries
Weather forecast

Temperature7.2°C (45.0°F)
Wind chill6.4°C (43.5°F)
Dew point3.3°C (37.9°F)
Winds 3 kts (1.5 m/s, 3.5 mph) Southeast (130°)
Visibility10 mi. (16.1 km)
Clouds Sky clear
Altimeter30.20 in.Hg (1023 mB)
Relative humidity76 %
Density altitude-1,141 ft. (-348 m)
Sea-level pressure102.3 kPa (1023 mB, 30.20 in.Hg)
Remarks Fully automated report
Automated weather observing station with precipitation discriminator
Flight conditions Visual Meteorological Conditions
Raw dataKSJC 110953Z AUTO 13003KT 10SM CLR 07/03 A3020 RMK AO2 SLP226 T00720033
An error has occurred. This application may no longer respond until reloaded. Reload 🗙